sensor_id;sensor_type;location;lat;lon;timestamp;pressure;altitude;pressure_sealevel;temperature;humidity
11001;BME280;5553;48.506;8.870;2023-04-10T08:56:25;96609.59;;;16.67;42.63
11001;BME280;5553;48.506;8.870;2023-04-10T08:58:54;96599.66;;;16.44;42.77
11001;BME280;5553;48.506;8.870;2023-04-10T09:01:22;96603.97;;;15.78;43.11
11001;BME280;5553;48.506;8.870;2023-04-10T09:03:51;96654.94;;;17.56;43.84
11001;BME280;5553;48.506;8.870;2023-04-10T09:06:19;96664.38;;;17.82;43.48
11001;BME280;5553;48.506;8.870;2023-04-10T09:08:48;96619.59;;;16.41;44.16
11001;BME280;5553;48.506;8.870;2023-04-10T09:11:16;96664.41;;;16.26;46.33
11001;BME280;5553;48.506;8.870;2023-04-10T09:13:47;96615.94;;;15.69;44.24
11001;BME280;5553;48.506;8.870;2023-04-10T09:16:16;96620.63;;;15.23;45.93
11001;BME280;5553;48.506;8.870;2023-04-10T09:18:46;96644.88;;;16.80;44.78
11001;BME280;5553;48.506;8.870;2023-04-10T09:21:16;96687.06;;;18.08;44.54
11001;BME280;5553;48.506;8.870;2023-04-10T09:23:47;96597.81;;;16.74;42.65
11001;BME280;5553;48.506;8.870;2023-04-10T09:26:26;96636.84;;;17.69;43.08
11001;BME280;5553;48.506;8.870;2023-04-10T09:29:02;96645.56;;;19.48;40.80
11001;BME280;5553;48.506;8.870;2023-04-10T09:31:32;96607.09;;;18.99;40.08
11001;BME280;5553;48.506;8.870;2023-04-10T09:34:09;96600.91;;;18.24;41.46
11001;BME280;5553;48.506;8.870;2023-04-10T09:36:38;96591.03;;;18.82;39.41
11001;BME280;5553;48.506;8.870;2023-04-10T09:39:07;96605.34;;;19.60;38.34
11001;BME280;5553;48.506;8.870;2023-04-10T09:41:49;96548.06;;;17.97;38.47
11001;BME280;5553;48.506;8.870;2023-04-10T09:44:30;96607.25;;;19.42;39.37
11001;BME280;5553;48.506;8.870;2023-04-10T09:47:15;96553.47;;;18.43;38.05
11001;BME280;5553;48.506;8.870;2023-04-10T09:49:44;96601.81;;;19.93;37.87
11001;BME280;5553;48.506;8.870;2023-04-10T09:52:21;96589.44;;;18.98;39.41
11001;BME280;5553;48.506;8.870;2023-04-10T09:54:50;96562.47;;;18.54;38.92
11001;BME280;5553;48.506;8.870;2023-04-10T09:57:21;96574.91;;;19.27;38.15
11001;BME280;5553;48.506;8.870;2023-04-10T09:59:54;96550.53;;;19.07;38.05
11001;BME280;5553;48.506;8.870;2023-04-10T10:02:23;96615.47;;;20.41;39.11
11001;BME280;5553;48.506;8.870;2023-04-10T10:04:51;96577.66;;;20.59;37.45
11001;BME280;5553;48.506;8.870;2023-04-10T10:07:21;96591.44;;;20.46;38.41
11001;BME280;5553;48.506;8.870;2023-04-10T10:09:51;96569.72;;;21.01;36.62
11001;BME280;5553;48.506;8.870;2023-04-10T10:12:23;96593.03;;;20.47;39.00
11001;BME280;5553;48.506;8.870;2023-04-10T10:15:00;96568.16;;;21.43;36.31
11001;BME280;5553;48.506;8.870;2023-04-10T10:17:36;96524.88;;;20.32;36.75
11001;BME280;5553;48.506;8.870;2023-04-10T10:20:07;96556.41;;;21.49;36.22
11001;BME280;5553;48.506;8.870;2023-04-10T10:22:37;96515.22;;;20.91;35.22
11001;BME280;5553;48.506;8.870;2023-04-10T10:25:06;96494.06;;;20.94;34.60
11001;BME280;5553;48.506;8.870;2023-04-10T10:27:36;96542.63;;;21.83;34.76
11001;BME280;5553;48.506;8.870;2023-04-10T10:30:08;96480.69;;;20.62;34.31
11001;BME280;5553;48.506;8.870;2023-04-10T10:32:39;96499.28;;;21.11;34.23
11001;BME280;5553;48.506;8.870;2023-04-10T10:35:09;96487.84;;;20.89;34.84
11001;BME280;5553;48.506;8.870;2023-04-10T10:37:38;96500.16;;;20.85;35.41
11001;BME280;5553;48.506;8.870;2023-04-10T10:40:13;96483.09;;;21.01;34.47
11001;BME280;5553;48.506;8.870;2023-04-10T10:42:48;96484.41;;;20.34;36.18
11001;BME280;5553;48.506;8.870;2023-04-10T10:45:24;96519.06;;;21.95;34.81
11001;BME280;5553;48.506;8.870;2023-04-10T10:47:57;96480.41;;;20.96;35.09
11001;BME280;5553;48.506;8.870;2023-04-10T10:50:50;96474.16;;;21.33;34.32
11001;BME280;5553;48.506;8.870;2023-04-10T10:53:31;96471.59;;;20.36;36.43
11001;BME280;5553;48.506;8.870;2023-04-10T10:58:58;96449.78;;;20.87;33.73
11001;BME280;5553;48.506;8.870;2023-04-10T11:01:29;96498.63;;;21.94;34.18
11001;BME280;5553;48.506;8.870;2023-04-10T11:03:58;96468.03;;;22.10;32.57
11001;BME280;5553;48.506;8.870;2023-04-10T11:06:48;96455.00;;;21.56;33.15
11001;BME280;5553;48.506;8.870;2023-04-10T11:09:45;96493.41;;;22.70;33.13
11001;BME280;5553;48.506;8.870;2023-04-10T11:12:20;96453.09;;;22.60;31.35
11001;BME280;5553;48.506;8.870;2023-04-10T11:15:06;96462.75;;;23.02;30.89
11001;BME280;5553;48.506;8.870;2023-04-10T11:17:51;96432.59;;;23.10;29.80
11001;BME280;5553;48.506;8.870;2023-04-10T11:20:20;96389.88;;;22.01;30.34
11001;BME280;5553;48.506;8.870;2023-04-10T11:23:07;96414.06;;;22.83;29.77
11001;BME280;5553;48.506;8.870;2023-04-10T11:25:50;96452.25;;;23.91;29.86
11001;BME280;5553;48.506;8.870;2023-04-10T11:28:37;96390.06;;;23.23;27.96
11001;BME280;5553;48.506;8.870;2023-04-10T11:31:16;96435.94;;;24.11;28.86
11001;BME280;5553;48.506;8.870;2023-04-10T11:33:52;96402.22;;;23.80;27.64
11001;BME280;5553;48.506;8.870;2023-04-10T11:36:27;96386.31;;;23.13;28.30
11001;BME280;5553;48.506;8.870;2023-04-10T11:38:57;96330.50;;;22.54;27.27
11001;BME280;5553;48.506;8.870;2023-04-10T11:41:30;96398.84;;;23.98;27.45
11001;BME280;5553;48.506;8.870;2023-04-10T11:44:00;96373.44;;;23.00;27.97
11001;BME280;5553;48.506;8.870;2023-04-10T11:46:29;96415.13;;;23.78;29.08
11001;BME280;5553;48.506;8.870;2023-04-10T11:49:02;96377.22;;;23.64;27.39
11001;BME280;5553;48.506;8.870;2023-04-10T11:51:31;96287.03;;;22.06;26.15
11001;BME280;5553;48.506;8.870;2023-04-10T11:54:07;96256.22;;;19.95;29.07
11001;BME280;5553;48.506;8.870;2023-04-10T11:56:36;96316.72;;;20.65;31.16
11001;BME280;5553;48.506;8.870;2023-04-10T11:59:05;96206.56;;;20.62;25.85
11001;BME280;5553;48.506;8.870;2023-04-10T12:01:35;96199.38;;;20.82;25.06
11001;BME280;5553;48.506;8.870;2023-04-10T12:04:12;96227.03;;;21.09;25.75
11001;BME280;5553;48.506;8.870;2023-04-10T12:06:43;96286.47;;;21.73;26.76
11001;BME280;5553;48.506;8.870;2023-04-10T12:09:12;96254.22;;;21.43;25.73
11001;BME280;5553;48.506;8.870;2023-04-10T12:11:48;96307.38;;;23.38;24.86
11001;BME280;5553;48.506;8.870;2023-04-10T12:14:17;96256.97;;;21.79;25.90
11001;BME280;5553;48.506;8.870;2023-04-10T12:16:46;96183.50;;;20.08;25.97
11001;BME280;5553;48.506;8.870;2023-04-10T12:19:17;96140.69;;;18.74;26.90
11001;BME280;5553;48.506;8.870;2023-04-10T12:21:48;96135.53;;;19.59;24.65
11001;BME280;5553;48.506;8.870;2023-04-10T12:24:41;96226.16;;;20.72;25.87
11001;BME280;5553;48.506;8.870;2023-04-10T12:27:16;96204.56;;;20.47;25.46
11001;BME280;5553;48.506;8.870;2023-04-10T12:29:45;96215.03;;;20.48;25.97
11001;BME280;5553;48.506;8.870;2023-04-10T12:32:14;96283.28;;;21.82;26.68
11001;BME280;5553;48.506;8.870;2023-04-10T12:34:51;96189.03;;;19.59;26.74
11001;BME280;5553;48.506;8.870;2023-04-10T12:37:21;96196.34;;;19.36;27.31
11001;BME280;5553;48.506;8.870;2023-04-10T12:39:50;96170.81;;;19.24;26.62
11001;BME280;5553;48.506;8.870;2023-04-10T12:42:21;96209.78;;;19.74;27.51
11001;BME280;5553;48.506;8.870;2023-04-10T12:44:51;96153.28;;;19.38;26.09
11001;BME280;5553;48.506;8.870;2023-04-10T12:47:19;96154.44;;;19.15;26.65
11001;BME280;5553;48.506;8.870;2023-04-10T12:50:06;96227.59;;;20.38;27.33
11001;BME280;5553;48.506;8.870;2023-04-10T12:52:36;96141.47;;;19.29;26.67
11001;BME280;5553;48.506;8.870;2023-04-10T12:55:09;96149.00;;;18.56;27.54
11001;BME280;5553;48.506;8.870;2023-04-10T12:57:38;96156.69;;;17.69;29.37
11001;BME280;5553;48.506;8.870;2023-04-10T13:00:08;96230.97;;;17.94;32.34
11001;BME280;5553;48.506;8.870;2023-04-10T13:02:37;96214.47;;;18.36;30.73
11001;BME280;5553;48.506;8.870;2023-04-10T13:05:09;96197.06;;;18.56;29.88
11001;BME280;5553;48.506;8.870;2023-04-10T13:07:38;96198.63;;;17.57;31.65
11001;BME280;5553;48.506;8.870;2023-04-10T13:10:07;96177.88;;;17.76;30.43
11001;BME280;5553;48.506;8.870;2023-04-10T13:12:36;96207.41;;;18.08;31.27
11001;BME280;5553;48.506;8.870;2023-04-10T13:15:06;96184.81;;;18.33;29.85
11001;BME280;5553;48.506;8.870;2023-04-10T13:17:35;96161.00;;;18.75;27.88
11001;BME280;5553;48.506;8.870;2023-04-10T13:20:10;96163.50;;;18.87;27.59
11001;BME280;5553;48.506;8.870;2023-04-10T13:22:38;96178.38;;;19.32;27.83
11001;BME280;5553;48.506;8.870;2023-04-10T13:25:07;96171.94;;;19.01;27.87
11001;BME280;5553;48.506;8.870;2023-04-10T13:27:36;96169.91;;;18.86;28.46
11001;BME280;5553;48.506;8.870;2023-04-10T13:30:05;96136.81;;;18.16;28.48
11001;BME280;5553;48.506;8.870;2023-04-10T13:32:34;96161.00;;;18.53;28.62
11001;BME280;5553;48.506;8.870;2023-04-10T13:35:02;96158.69;;;18.18;29.19
11001;BME280;5553;48.506;8.870;2023-04-10T13:37:33;96199.72;;;18.12;31.42
11001;BME280;5553;48.506;8.870;2023-04-10T13:40:02;96183.53;;;18.84;29.73
11001;BME280;5553;48.506;8.870;2023-04-10T13:42:31;96170.25;;;18.45;30.11
11001;BME280;5553;48.506;8.870;2023-04-10T13:45:00;96208.19;;;19.46;30.00
11001;BME280;5553;48.506;8.870;2023-04-10T13:47:28;96222.38;;;19.46;30.55
11001;BME280;5553;48.506;8.870;2023-04-10T13:49:56;96153.34;;;18.62;29.53
11001;BME280;5553;48.506;8.870;2023-04-10T13:52:24;96152.31;;;18.41;30.13
11001;BME280;5553;48.506;8.870;2023-04-10T13:54:55;96161.66;;;17.99;30.95
11001;BME280;5553;48.506;8.870;2023-04-10T13:57:23;96187.66;;;18.48;31.77
11001;BME280;5553;48.506;8.870;2023-04-10T13:59:52;96212.94;;;18.84;32.15
11001;BME280;5553;48.506;8.870;2023-04-10T14:02:20;96133.44;;;18.04;30.28
11001;BME280;5553;48.506;8.870;2023-04-10T14:04:48;96146.97;;;18.19;30.41
11001;BME280;5553;48.506;8.870;2023-04-10T14:07:17;96185.22;;;18.46;31.64
11001;BME280;5553;48.506;8.870;2023-04-10T14:09:46;96208.94;;;18.21;33.95
11001;BME280;5553;48.506;8.870;2023-04-10T14:12:16;96189.19;;;17.49;34.38
11001;BME280;5553;48.506;8.870;2023-04-10T14:14:47;96140.16;;;17.17;32.50
11001;BME280;5553;48.506;8.870;2023-04-10T14:17:15;96141.81;;;17.57;31.49
11001;BME280;5553;48.506;8.870;2023-04-10T14:19:44;96160.63;;;17.67;32.55
11001;BME280;5553;48.506;8.870;2023-04-10T14:22:15;96155.38;;;17.72;32.62
11001;BME280;5553;48.506;8.870;2023-04-10T14:24:45;96170.28;;;17.51;33.87
11001;BME280;5553;48.506;8.870;2023-04-10T14:27:15;96110.66;;;17.40;31.33
11001;BME280;5553;48.506;8.870;2023-04-10T14:29:44;96170.91;;;17.24;34.05
11001;BME280;5553;48.506;8.870;2023-04-10T14:32:12;96193.88;;;17.42;34.98
11001;BME280;5553;48.506;8.870;2023-04-10T14:34:40;96190.97;;;17.61;34.32
11001;BME280;5553;48.506;8.870;2023-04-10T14:37:08;96151.81;;;18.22;30.99
11001;BME280;5553;48.506;8.870;2023-04-10T14:39:37;96132.66;;;17.69;31.35
11001;BME280;5553;48.506;8.870;2023-04-10T14:42:05;96131.41;;;17.21;32.01
11001;BME280;5553;48.506;8.870;2023-04-10T14:44:37;96154.59;;;17.21;33.52
11001;BME280;5553;48.506;8.870;2023-04-10T14:47:05;96122.44;;;17.44;31.48
11001;BME280;5553;48.506;8.870;2023-04-10T14:49:34;96139.25;;;17.45;32.90
11001;BME280;5553;48.506;8.870;2023-04-10T14:52:03;96110.06;;;17.55;30.81
11001;BME280;5553;48.506;8.870;2023-04-10T14:54:31;96094.84;;;17.17;31.03
11001;BME280;5553;48.506;8.870;2023-04-10T14:57:00;96093.38;;;16.92;31.49
11001;BME280;5553;48.506;8.870;2023-04-10T14:59:28;96044.59;;;16.75;29.43
11001;BME280;5553;48.506;8.870;2023-04-10T15:01:59;96116.59;;;16.80;33.25
11001;BME280;5553;48.506;8.870;2023-04-10T15:04:27;96077.53;;;17.02;30.44
11001;BME280;5553;48.506;8.870;2023-04-10T15:06:56;96102.97;;;17.99;30.53
11001;BME280;5553;48.506;8.870;2023-04-10T15:09:24;96071.88;;;16.99;31.07
11001;BME280;5553;48.506;8.870;2023-04-10T15:11:52;96064.41;;;16.79;31.02
11001;BME280;5553;48.506;8.870;2023-04-10T15:14:21;96081.81;;;16.87;31.70
11001;BME280;5553;48.506;8.870;2023-04-10T15:16:50;96075.53;;;17.26;31.48
11001;BME280;5553;48.506;8.870;2023-04-10T15:19:20;96028.38;;;16.76;29.78
11001;BME280;5553;48.506;8.870;2023-04-10T15:21:49;96082.25;;;16.67;32.81
11001;BME280;5553;48.506;8.870;2023-04-10T15:24:17;96080.78;;;16.59;32.85
11001;BME280;5553;48.506;8.870;2023-04-10T15:26:46;96077.94;;;16.94;31.80
11001;BME280;5553;48.506;8.870;2023-04-10T15:29:14;96082.34;;;16.72;32.75
11001;BME280;5553;48.506;8.870;2023-04-10T15:31:42;96092.81;;;16.33;34.21
11001;BME280;5553;48.506;8.870;2023-04-10T15:34:12;96107.41;;;16.88;33.82
11001;BME280;5553;48.506;8.870;2023-04-10T15:36:43;96100.53;;;16.46;34.80
11001;BME280;5553;48.506;8.870;2023-04-10T15:39:11;96115.97;;;16.32;36.21
11001;BME280;5553;48.506;8.870;2023-04-10T15:41:40;96180.72;;;16.50;39.06
11001;BME280;5553;48.506;8.870;2023-04-10T15:44:08;96126.69;;;16.21;37.01
11001;BME280;5553;48.506;8.870;2023-04-10T15:46:36;96097.94;;;16.34;34.96
11001;BME280;5553;48.506;8.870;2023-04-10T15:49:04;96088.91;;;15.95;35.34
11001;BME280;5553;48.506;8.870;2023-04-10T15:51:33;96073.38;;;16.04;34.73
11001;BME280;5553;48.506;8.870;2023-04-10T15:54:04;96085.03;;;16.43;34.70
11001;BME280;5553;48.506;8.870;2023-04-10T15:56:33;96048.34;;;16.45;32.66
11001;BME280;5553;48.506;8.870;2023-04-10T15:59:01;96058.38;;;16.26;33.41
11001;BME280;5553;48.506;8.870;2023-04-10T16:01:30;96065.88;;;16.01;35.12
11001;BME280;5553;48.506;8.870;2023-04-10T16:03:58;96069.72;;;15.81;35.76
11001;BME280;5553;48.506;8.870;2023-04-10T16:06:26;96092.59;;;15.94;36.58
11001;BME280;5553;48.506;8.870;2023-04-10T16:08:55;96071.59;;;15.81;36.27
11001;BME280;5553;48.506;8.870;2023-04-10T16:11:26;96055.50;;;15.87;35.03
11001;BME280;5553;48.506;8.870;2023-04-10T16:13:55;96074.84;;;15.71;36.92
11001;BME280;5553;48.506;8.870;2023-04-10T16:16:23;96063.09;;;15.96;35.55
11001;BME280;5553;48.506;8.870;2023-04-10T16:18:53;96069.13;;;15.91;35.57
11001;BME280;5553;48.506;8.870;2023-04-10T16:21:21;96031.56;;;15.76;33.97
11001;BME280;5553;48.506;8.870;2023-04-10T16:23:51;96046.06;;;15.68;35.22
11001;BME280;5553;48.506;8.870;2023-04-10T16:26:19;96074.84;;;15.48;38.00
11001;BME280;5553;48.506;8.870;2023-04-10T16:28:50;96072.88;;;15.67;37.14
11001;BME280;5553;48.506;8.870;2023-04-10T16:31:18;96073.94;;;15.42;37.67
11001;BME280;5553;48.506;8.870;2023-04-10T16:33:46;96107.19;;;15.33;39.29
11001;BME280;5553;48.506;8.870;2023-04-10T16:36:15;96099.34;;;15.38;38.88
11001;BME280;5553;48.506;8.870;2023-04-10T16:38:43;96079.94;;;15.49;37.76
11001;BME280;5553;48.506;8.870;2023-04-10T16:41:13;96079.69;;;15.51;37.85
11001;BME280;5553;48.506;8.870;2023-04-10T16:43:44;96066.06;;;15.47;37.66
11001;BME280;5553;48.506;8.870;2023-04-10T16:46:15;96077.72;;;15.34;39.41
11001;BME280;5553;48.506;8.870;2023-04-10T16:48:43;96065.13;;;15.30;39.16
11001;BME280;5553;48.506;8.870;2023-04-10T16:51:14;96075.53;;;15.20;39.69
11001;BME280;5553;48.506;8.870;2023-04-10T16:53:42;96078.09;;;15.14;40.41
11001;BME280;5553;48.506;8.870;2023-04-10T16:56:10;96072.19;;;15.12;40.35
11001;BME280;5553;48.506;8.870;2023-04-10T16:58:39;96088.09;;;15.01;41.40
11001;BME280;5553;48.506;8.870;2023-04-10T17:01:21;96088.69;;;14.91;41.06
11001;BME280;5553;48.506;8.870;2023-04-10T17:03:51;96091.22;;;14.86;41.61
11001;BME280;5553;48.506;8.870;2023-04-10T17:06:20;96088.69;;;14.91;41.68
11001;BME280;5553;48.506;8.870;2023-04-10T17:08:49;96111.94;;;14.65;43.51
11001;BME280;5553;48.506;8.870;2023-04-10T17:11:17;96121.25;;;14.56;44.17
11001;BME280;5553;48.506;8.870;2023-04-10T17:13:45;96121.03;;;14.58;44.10
11001;BME280;5553;48.506;8.870;2023-04-10T17:16:13;96128.28;;;14.51;44.98
11001;BME280;5553;48.506;8.870;2023-04-10T17:18:44;96139.91;;;14.50;45.32
11001;BME280;5553;48.506;8.870;2023-04-10T17:21:13;96149.34;;;14.45;45.79
11001;BME280;5553;48.506;8.870;2023-04-10T17:23:41;96138.94;;;14.62;44.88
11001;BME280;5553;48.506;8.870;2023-04-10T17:26:13;96139.06;;;14.49;45.42
11001;BME280;5553;48.506;8.870;2023-04-10T17:28:42;96155.00;;;14.49;45.72
11001;BME280;5553;48.506;8.870;2023-04-10T17:31:12;96158.38;;;14.26;47.11
11001;BME280;5553;48.506;8.870;2023-04-10T17:33:40;96178.34;;;14.10;48.70
11001;BME280;5553;48.506;8.870;2023-04-10T17:38:40;96168.19;;;14.26;47.92
11001;BME280;5553;48.506;8.870;2023-04-10T17:41:12;96164.16;;;14.35;47.44
11001;BME280;5553;48.506;8.870;2023-04-10T17:43:41;96183.66;;;13.92;50.18
11001;BME280;5553;48.506;8.870;2023-04-10T17:46:12;96185.56;;;14.03;49.60
11001;BME280;5553;48.506;8.870;2023-04-10T17:48:40;96200.25;;;13.81;50.93
11001;BME280;5553;48.506;8.870;2023-04-10T17:51:09;96213.22;;;13.70;51.66
11001;BME280;5553;48.506;8.870;2023-04-10T17:53:40;96207.91;;;13.70;51.78
11001;BME280;5553;48.506;8.870;2023-04-10T17:56:15;96207.00;;;13.58;52.50
11001;BME280;5553;48.506;8.870;2023-04-10T17:58:44;96228.53;;;13.43;53.51
11001;BME280;5553;48.506;8.870;2023-04-10T18:01:19;96221.47;;;13.37;54.19
11001;BME280;5553;48.506;8.870;2023-04-10T18:03:47;96224.72;;;13.33;54.93
11001;BME280;5553;48.506;8.870;2023-04-10T18:06:16;96217.28;;;13.48;54.66
11001;BME280;5553;48.506;8.870;2023-04-10T18:08:47;96231.69;;;13.34;55.96
11001;BME280;5553;48.506;8.870;2023-04-10T18:11:15;96238.63;;;13.28;56.70
11001;BME280;5553;48.506;8.870;2023-04-10T18:13:45;96228.84;;;13.28;57.21
11001;BME280;5553;48.506;8.870;2023-04-10T18:16:13;96223.97;;;13.25;57.74
11001;BME280;5553;48.506;8.870;2023-04-10T18:18:42;96226.88;;;13.17;58.10
11001;BME280;5553;48.506;8.870;2023-04-10T18:21:10;96212.59;;;13.18;58.37
11001;BME280;5553;48.506;8.870;2023-04-10T18:23:38;96208.94;;;13.13;58.66
11001;BME280;5553;48.506;8.870;2023-04-10T18:26:11;96208.13;;;13.12;58.71
11001;BME280;5553;48.506;8.870;2023-04-10T18:28:40;96201.94;;;13.00;59.19
11001;BME280;5553;48.506;8.870;2023-04-10T18:31:10;96201.94;;;13.00;59.35
11001;BME280;5553;48.506;8.870;2023-04-10T18:33:40;96221.38;;;12.80;60.06
11001;BME280;5553;48.506;8.870;2023-04-10T18:36:09;96230.16;;;12.74;60.42
11001;BME280;5553;48.506;8.870;2023-04-10T18:38:38;96232.53;;;12.89;60.00
11001;BME280;5553;48.506;8.870;2023-04-10T18:41:10;96243.59;;;12.79;60.65
11001;BME280;5553;48.506;8.870;2023-04-10T18:43:38;96248.19;;;12.91;60.27
11001;BME280;5553;48.506;8.870;2023-04-10T18:46:09;96257.78;;;12.85;60.91
11001;BME280;5553;48.506;8.870;2023-04-10T18:48:40;96270.63;;;12.88;60.79
11001;BME280;5553;48.506;8.870;2023-04-10T18:51:09;96273.56;;;12.67;61.67
11001;BME280;5553;48.506;8.870;2023-04-10T18:53:38;96283.72;;;12.76;61.59
11001;BME280;5553;48.506;8.870;2023-04-10T18:56:07;96283.88;;;12.81;61.25
11001;BME280;5553;48.506;8.870;2023-04-10T18:58:39;96283.66;;;12.90;61.01
11001;BME280;5553;48.506;8.870;2023-04-10T19:01:07;96278.41;;;12.76;61.65
11001;BME280;5553;48.506;8.870;2023-04-10T19:03:35;96286.25;;;12.58;62.73
11001;BME280;5553;48.506;8.870;2023-04-10T19:06:06;96289.06;;;12.56;63.13
11001;BME280;5553;48.506;8.870;2023-04-10T19:08:35;96285.88;;;12.48;63.86
11001;BME280;5553;48.506;8.870;2023-04-10T19:11:04;96284.47;;;12.39;64.41
11001;BME280;5553;48.506;8.870;2023-04-10T19:13:33;96278.75;;;12.42;64.36
11001;BME280;5553;48.506;8.870;2023-04-10T19:16:05;96290.16;;;12.36;65.09
11001;BME280;5553;48.506;8.870;2023-04-10T19:18:38;96288.16;;;12.24;65.74
11001;BME280;5553;48.506;8.870;2023-04-10T19:21:06;96292.44;;;12.19;66.35
11001;BME280;5553;48.506;8.870;2023-04-10T19:23:35;96289.19;;;12.17;66.84
11001;BME280;5553;48.506;8.870;2023-04-10T19:26:03;96277.78;;;12.16;66.52
11001;BME280;5553;48.506;8.870;2023-04-10T19:28:32;96280.03;;;12.13;67.08
11001;BME280;5553;48.506;8.870;2023-04-10T19:31:04;96277.19;;;12.14;67.26
11001;BME280;5553;48.506;8.870;2023-04-10T19:33:32;96289.19;;;12.10;67.78
11001;BME280;5553;48.506;8.870;2023-04-10T19:36:00;96302.63;;;12.15;67.32
11001;BME280;5553;48.506;8.870;2023-04-10T19:38:29;96309.09;;;12.19;67.58
11001;BME280;5553;48.506;8.870;2023-04-10T19:40:57;96313.59;;;12.05;68.35
11001;BME280;5553;48.506;8.870;2023-04-10T19:43:25;96318.69;;;12.14;68.41
11001;BME280;5553;48.506;8.870;2023-04-10T19:45:54;96324.16;;;12.19;68.43
11001;BME280;5553;48.506;8.870;2023-04-10T19:48:26;96329.47;;;12.19;68.36
11001;BME280;5553;48.506;8.870;2023-04-10T19:51:02;96324.56;;;12.22;68.44
11001;BME280;5553;48.506;8.870;2023-04-10T19:53:30;96323.78;;;12.08;69.46
11001;BME280;5553;48.506;8.870;2023-04-10T19:55:58;96332.94;;;11.99;70.37
11001;BME280;5553;48.506;8.870;2023-04-10T19:58:26;96334.75;;;11.85;71.41
11001;BME280;5553;48.506;8.870;2023-04-10T20:01:00;96333.34;;;11.90;71.31
11001;BME280;5553;48.506;8.870;2023-04-10T20:03:31;96336.59;;;11.85;71.62
11001;BME280;5553;48.506;8.870;2023-04-10T20:06:02;96339.66;;;11.89;71.67
11001;BME280;5553;48.506;8.870;2023-04-10T20:08:31;96343.91;;;11.90;71.48
11001;BME280;5553;48.506;8.870;2023-04-10T20:10:59;96346.16;;;11.93;71.35
11001;BME280;5553;48.506;8.870;2023-04-10T20:13:30;96340.84;;;11.86;71.46
11001;BME280;5553;48.506;8.870;2023-04-10T20:15:58;96334.75;;;11.85;71.95
11001;BME280;5553;48.506;8.870;2023-04-10T20:18:33;96332.75;;;11.88;71.71
11001;BME280;5553;48.506;8.870;2023-04-10T20:21:01;96320.31;;;11.81;71.10
11001;BME280;5553;48.506;8.870;2023-04-10T20:23:33;96303.25;;;11.91;69.89
11001;BME280;5553;48.506;8.870;2023-04-10T20:26:02;96287.56;;;12.02;68.47
11001;BME280;5553;48.506;8.870;2023-04-10T20:28:31;96293.25;;;12.06;68.15
11001;BME280;5553;48.506;8.870;2023-04-10T20:30:59;96294.28;;;12.05;68.47
11001;BME280;5553;48.506;8.870;2023-04-10T20:33:28;96287.97;;;12.06;68.06
11001;BME280;5553;48.506;8.870;2023-04-10T20:35:58;96278.84;;;12.02;68.19
11001;BME280;5553;48.506;8.870;2023-04-10T20:38:27;96291.47;;;11.87;69.28
11001;BME280;5553;48.506;8.870;2023-04-10T20:40:55;96297.75;;;11.85;69.61
11001;BME280;5553;48.506;8.870;2023-04-10T20:43:24;96293.69;;;11.83;70.00
11001;BME280;5553;48.506;8.870;2023-04-10T20:45:52;96300.63;;;11.91;69.18
11001;BME280;5553;48.506;8.870;2023-04-10T20:48:20;96286.56;;;11.83;69.50
11001;BME280;5553;48.506;8.870;2023-04-10T20:50:49;96267.47;;;11.95;68.92
11001;BME280;5553;48.506;8.870;2023-04-10T20:53:20;96259.31;;;11.83;69.15
11001;BME280;5553;48.506;8.870;2023-04-10T20:55:50;96252.19;;;11.83;68.08
11001;BME280;5553;48.506;8.870;2023-04-10T20:58:18;96233.09;;;11.81;66.58
11001;BME280;5553;48.506;8.870;2023-04-10T21:00:49;96238.38;;;11.81;66.08
11001;BME280;5553;48.506;8.870;2023-04-10T21:03:18;96229.41;;;11.76;65.60
11001;BME280;5553;48.506;8.870;2023-04-10T21:05:46;96230.25;;;11.76;65.32
11001;BME280;5553;48.506;8.870;2023-04-10T21:08:14;96225.78;;;11.77;64.96
11001;BME280;5553;48.506;8.870;2023-04-10T21:10:46;96224.97;;;11.83;64.10
11001;BME280;5553;48.506;8.870;2023-04-10T21:13:15;96218.88;;;11.69;64.68
11001;BME280;5553;48.506;8.870;2023-04-10T21:15:43;96204.63;;;11.83;63.24
11001;BME280;5553;48.506;8.870;2023-04-10T21:18:12;96194.66;;;11.85;62.79
11001;BME280;5553;48.506;8.870;2023-04-10T21:20:41;96192.66;;;11.88;61.94
11001;BME280;5553;48.506;8.870;2023-04-10T21:23:09;96195.28;;;11.74;62.43
11001;BME280;5553;48.506;8.870;2023-04-10T21:25:38;96179.19;;;11.82;61.66
11001;BME280;5553;48.506;8.870;2023-04-10T21:28:09;96161.34;;;11.71;62.13
11001;BME280;5553;48.506;8.870;2023-04-10T21:30:37;96158.69;;;11.71;61.83
11001;BME280;5553;48.506;8.870;2023-04-10T21:33:05;96158.69;;;11.71;61.56
11001;BME280;5553;48.506;8.870;2023-04-10T21:35:34;96166.03;;;11.69;61.17
11001;BME280;5553;48.506;8.870;2023-04-10T21:38:02;96177.22;;;11.58;62.18
11001;BME280;5553;48.506;8.870;2023-04-10T21:40:30;96173.31;;;11.80;60.59
11001;BME280;5553;48.506;8.870;2023-04-10T21:42:59;96158.88;;;11.90;60.31
11001;BME280;5553;48.506;8.870;2023-04-10T21:45:32;96153.16;;;11.93;60.21
11001;BME280;5553;48.506;8.870;2023-04-10T21:48:01;96152.75;;;11.96;60.66
11001;BME280;5553;48.506;8.870;2023-04-10T21:50:30;96164.72;;;12.12;60.74
11001;BME280;5553;48.506;8.870;2023-04-10T21:52:58;96157.81;;;12.11;60.82
11001;BME280;5553;48.506;8.870;2023-04-10T21:55:27;96171.09;;;11.91;61.52
11001;BME280;5553;48.506;8.870;2023-04-10T21:57:55;96172.91;;;11.77;62.06
11001;BME280;5553;48.506;8.870;2023-04-10T22:00:23;96169.03;;;11.86;61.56
11001;BME280;5553;48.506;8.870;2023-04-10T22:02:55;96157.50;;;11.67;62.33
11001;BME280;5553;48.506;8.870;2023-04-10T22:05:23;96145.31;;;11.66;62.09
11001;BME280;5553;48.506;8.870;2023-04-10T22:07:52;96148.56;;;11.55;62.65
11001;BME280;5553;48.506;8.870;2023-04-10T22:10:20;96147.97;;;11.46;62.79
11001;BME280;5553;48.506;8.870;2023-04-10T22:12:48;96143.72;;;11.38;62.75
11001;BME280;5553;48.506;8.870;2023-04-10T22:15:17;96140.06;;;11.33;62.72
11001;BME280;5553;48.506;8.870;2023-04-10T22:17:45;96126.63;;;11.48;61.73
11001;BME280;5553;48.506;8.870;2023-04-10T22:20:17;96118.50;;;11.49;61.22
11001;BME280;5553;48.506;8.870;2023-04-10T22:22:45;96113.22;;;11.56;61.21
11001;BME280;5553;48.506;8.870;2023-04-10T22:25:13;96103.19;;;11.71;60.08
11001;BME280;5553;48.506;8.870;2023-04-10T22:27:41;96105.44;;;11.68;60.87